Flight Track Log - Related Links

Times and Time Zones

All times are in EDT time to prevent confusion due to time zone crossing. See the G52652 flight status page for this flight to view local times or setup timezone preferences in your user account.

Time Position Orientation Groundspeed Altitude Reporting Facility
EDT Latitude Longitude Course Direction KTS MPH feet Rate Location/Type
Thu 11:39:00 PM 23.2921 110.6310 254° West  Level Estimated
Thu 11:40:00 PM 23.2736 110.5625 254° West  Level Estimated
Thu 11:41:00 PM 23.2552 110.4940 254° West  Level Estimated
Thu 11:42:00 PM 23.2367 110.4256 254° West  Level Estimated
Thu 11:43:00 PM 23.2181 110.3572 254° West  Level Estimated
Thu 11:44:00 PM 23.1996 110.2888 254° West  Level Estimated
Thu 11:45:00 PM 23.1810 110.2204 254° West  Level Estimated
Thu 11:46:00 PM 23.1624 110.1521 254° West  Level Estimated
Thu 11:47:00 PM 23.1437 110.0837 253° West  Level Estimated
Thu 11:48:00 PM 23.1251 110.0154 253° West  Level Estimated
Thu 11:49:00 PM 23.1064 109.9471 253° West  Level Estimated
Thu 11:50:00 PM 23.0876 109.8788 253° West  Level Estimated
Thu 11:51:00 PM 23.0689 109.8106 253° West  Level Estimated
Thu 11:52:00 PM 23.0501 109.7423 253° West  Level Estimated
Thu 11:53:00 PM 23.0313 109.6741 253° West  Level Estimated
Thu 11:54:00 PM 23.0124 109.6059 253° West  Level Estimated
Thu 11:55:00 PM 22.9935 109.5377 253° West  Level Estimated
Thu 11:56:00 PM 22.9746 109.4696 253° West  Level Estimated
Thu 11:57:00 PM 22.9557 109.4014 253° West  Level Estimated
Thu 11:58:00 PM 22.9367 109.3333 253° West  Level Estimated
Thu 11:59:00 PM 22.9177 109.2652 253° West  Level Estimated
Fri 12:00:00 AM 22.8987 109.1971 253° West  Level Estimated
Fri 12:01:00 AM 22.8797 109.1290 253° West  Level Estimated
Fri 12:02:00 AM 22.8606 109.0610 253° West  Level Estimated
Fri 12:03:00 AM 22.8415 108.9929 253° West  Level Estimated
Fri 12:04:00 AM 22.8223 108.9249 253° West  Level Estimated
Fri 12:05:00 AM 22.8032 108.8569 253° West  Level Estimated
Fri 12:06:00 AM 22.7840 108.7889 253° West  Level Estimated
Fri 12:07:00 AM 22.7647 108.7210 253° West  Level Estimated
Fri 12:08:00 AM 22.7455 108.6531 253° West  Level Estimated
Fri 12:09:00 AM 22.7262 108.5851 253° West  Level Estimated
Fri 12:10:00 AM 22.7069 108.5172 253° West  Level Estimated
Fri 12:11:00 AM 22.6875 108.4493 253° West  Level Estimated
Fri 12:12:00 AM 22.6682 108.3815 253° West  Level Estimated
Fri 12:13:00 AM 22.6488 108.3137 253° West  Level Estimated
Fri 12:14:00 AM 22.6293 108.2458 253° West  Level Estimated
Fri 12:15:00 AM 22.6099 108.1780 253° West  Level Estimated
Fri 12:16:00 AM 22.6083 108.1724 253° West  Level Estimated
Fri 12:17:00 AM 22.6083 108.1724 148° Southeast  Level Estimated
Fri 12:18:00 AM 22.6083 108.1724 148° Southeast  Level Estimated
Fri 12:19:00 AM 22.6083 108.1724 148° Southeast  Level Estimated
Fri 12:20:00 AM 22.6083 108.1724 148° Southeast  Level Estimated
Fri 12:21:00 AM 22.6083 108.1724 148° Southeast  Level Estimated
Fri 12:22:00 AM 22.6083 108.1724 148° Southeast  Level Estimated

Login

Don't have an account? Register now (free) for customized features, flight alerts, and more!